sensor_id;sensor_type;location;lat;lon;timestamp;P1;durP1;ratioP1;P2;durP2;ratioP2
9807;SDS011;4943;52.550;13.462;2024-01-30T00:00:42;45.73;;;33.00;;
9807;SDS011;4943;52.550;13.462;2024-01-30T00:03:11;45.60;;;32.83;;
9807;SDS011;4943;52.550;13.462;2024-01-30T00:05:39;45.27;;;32.77;;
9807;SDS011;4943;52.550;13.462;2024-01-30T00:08:07;45.33;;;32.80;;
9807;SDS011;4943;52.550;13.462;2024-01-30T00:10:36;45.80;;;32.97;;
9807;SDS011;4943;52.550;13.462;2024-01-30T00:13:04;45.60;;;32.87;;
9807;SDS011;4943;52.550;13.462;2024-01-30T00:15:33;45.97;;;33.10;;
9807;SDS011;4943;52.550;13.462;2024-01-30T00:18:02;45.33;;;32.70;;
9807;SDS011;4943;52.550;13.462;2024-01-30T00:20:30;46.10;;;33.13;;
9807;SDS011;4943;52.550;13.462;2024-01-30T00:22:59;46.30;;;33.23;;
9807;SDS011;4943;52.550;13.462;2024-01-30T00:25:28;45.83;;;33.10;;
9807;SDS011;4943;52.550;13.462;2024-01-30T00:27:56;46.00;;;33.03;;
9807;SDS011;4943;52.550;13.462;2024-01-30T00:30:24;46.13;;;33.13;;
9807;SDS011;4943;52.550;13.462;2024-01-30T00:32:54;46.00;;;33.17;;
9807;SDS011;4943;52.550;13.462;2024-01-30T00:35:23;45.17;;;32.53;;
9807;SDS011;4943;52.550;13.462;2024-01-30T00:37:51;45.73;;;32.77;;
9807;SDS011;4943;52.550;13.462;2024-01-30T00:40:19;46.07;;;33.30;;
9807;SDS011;4943;52.550;13.462;2024-01-30T00:42:47;45.90;;;33.00;;
9807;SDS011;4943;52.550;13.462;2024-01-30T00:45:16;46.03;;;33.33;;
9807;SDS011;4943;52.550;13.462;2024-01-30T00:47:44;45.80;;;32.93;;
9807;SDS011;4943;52.550;13.462;2024-01-30T00:50:14;45.97;;;33.20;;
9807;SDS011;4943;52.550;13.462;2024-01-30T00:52:42;45.77;;;32.90;;
9807;SDS011;4943;52.550;13.462;2024-01-30T00:55:12;45.07;;;32.53;;
9807;SDS011;4943;52.550;13.462;2024-01-30T00:57:40;46.17;;;33.33;;
9807;SDS011;4943;52.550;13.462;2024-01-30T01:00:12;46.07;;;33.03;;
9807;SDS011;4943;52.550;13.462;2024-01-30T01:02:43;45.83;;;32.87;;
9807;SDS011;4943;52.550;13.462;2024-01-30T01:05:11;45.53;;;32.57;;
9807;SDS011;4943;52.550;13.462;2024-01-30T01:07:41;45.73;;;32.93;;
9807;SDS011;4943;52.550;13.462;2024-01-30T01:10:10;46.07;;;33.13;;
9807;SDS011;4943;52.550;13.462;2024-01-30T01:12:40;45.17;;;32.43;;
9807;SDS011;4943;52.550;13.462;2024-01-30T01:15:08;46.17;;;33.07;;
9807;SDS011;4943;52.550;13.462;2024-01-30T01:17:37;45.57;;;32.73;;
9807;SDS011;4943;52.550;13.462;2024-01-30T01:20:06;46.07;;;33.17;;
9807;SDS011;4943;52.550;13.462;2024-01-30T01:22:38;45.03;;;32.33;;
9807;SDS011;4943;52.550;13.462;2024-01-30T01:25:06;45.57;;;32.77;;
9807;SDS011;4943;52.550;13.462;2024-01-30T01:27:35;46.43;;;33.23;;
9807;SDS011;4943;52.550;13.462;2024-01-30T01:30:08;46.07;;;33.00;;
9807;SDS011;4943;52.550;13.462;2024-01-30T01:32:38;46.43;;;33.07;;
9807;SDS011;4943;52.550;13.462;2024-01-30T01:35:11;45.23;;;32.40;;
9807;SDS011;4943;52.550;13.462;2024-01-30T01:37:41;46.97;;;33.47;;
9807;SDS011;4943;52.550;13.462;2024-01-30T01:40:09;46.43;;;33.13;;
9807;SDS011;4943;52.550;13.462;2024-01-30T01:42:38;47.07;;;33.50;;
9807;SDS011;4943;52.550;13.462;2024-01-30T01:45:06;46.50;;;33.10;;
9807;SDS011;4943;52.550;13.462;2024-01-30T01:47:35;46.83;;;33.23;;
9807;SDS011;4943;52.550;13.462;2024-01-30T01:50:03;46.03;;;33.03;;
9807;SDS011;4943;52.550;13.462;2024-01-30T01:52:32;46.03;;;32.90;;
9807;SDS011;4943;52.550;13.462;2024-01-30T01:55:03;45.67;;;32.63;;
9807;SDS011;4943;52.550;13.462;2024-01-30T01:57:33;45.07;;;32.37;;
9807;SDS011;4943;52.550;13.462;2024-01-30T02:00:01;45.93;;;33.00;;
9807;SDS011;4943;52.550;13.462;2024-01-30T02:02:31;45.77;;;33.07;;
9807;SDS011;4943;52.550;13.462;2024-01-30T02:05:04;45.80;;;32.90;;
9807;SDS011;4943;52.550;13.462;2024-01-30T02:07:32;44.97;;;32.47;;
9807;SDS011;4943;52.550;13.462;2024-01-30T02:10:02;45.27;;;32.47;;
9807;SDS011;4943;52.550;13.462;2024-01-30T02:12:31;45.73;;;32.80;;
9807;SDS011;4943;52.550;13.462;2024-01-30T02:14:59;46.77;;;33.40;;
9807;SDS011;4943;52.550;13.462;2024-01-30T02:17:27;46.73;;;33.40;;
9807;SDS011;4943;52.550;13.462;2024-01-30T02:19:56;46.53;;;33.23;;
9807;SDS011;4943;52.550;13.462;2024-01-30T02:22:25;45.83;;;32.77;;
9807;SDS011;4943;52.550;13.462;2024-01-30T02:24:54;45.73;;;32.93;;
9807;SDS011;4943;52.550;13.462;2024-01-30T02:27:22;45.60;;;32.83;;
9807;SDS011;4943;52.550;13.462;2024-01-30T02:29:51;46.30;;;33.17;;
9807;SDS011;4943;52.550;13.462;2024-01-30T02:32:19;45.30;;;32.53;;
9807;SDS011;4943;52.550;13.462;2024-01-30T02:34:47;45.73;;;32.87;;
9807;SDS011;4943;52.550;13.462;2024-01-30T02:37:16;46.10;;;33.17;;
9807;SDS011;4943;52.550;13.462;2024-01-30T02:39:46;44.80;;;32.10;;
9807;SDS011;4943;52.550;13.462;2024-01-30T02:42:14;45.70;;;32.80;;
9807;SDS011;4943;52.550;13.462;2024-01-30T02:44:42;45.17;;;32.37;;
9807;SDS011;4943;52.550;13.462;2024-01-30T02:47:10;45.77;;;32.83;;
9807;SDS011;4943;52.550;13.462;2024-01-30T02:49:38;46.10;;;32.97;;
9807;SDS011;4943;52.550;13.462;2024-01-30T02:52:07;45.93;;;32.93;;
9807;SDS011;4943;52.550;13.462;2024-01-30T02:54:35;46.13;;;32.90;;
9807;SDS011;4943;52.550;13.462;2024-01-30T02:57:05;45.57;;;32.83;;
9807;SDS011;4943;52.550;13.462;2024-01-30T02:59:33;44.93;;;32.33;;
9807;SDS011;4943;52.550;13.462;2024-01-30T03:02:02;45.33;;;32.67;;
9807;SDS011;4943;52.550;13.462;2024-01-30T03:04:30;44.87;;;32.20;;
9807;SDS011;4943;52.550;13.462;2024-01-30T03:06:59;45.37;;;32.63;;
9807;SDS011;4943;52.550;13.462;2024-01-30T03:09:27;45.20;;;32.50;;
9807;SDS011;4943;52.550;13.462;2024-01-30T03:11:55;45.63;;;32.87;;
9807;SDS011;4943;52.550;13.462;2024-01-30T03:14:25;46.40;;;33.20;;
9807;SDS011;4943;52.550;13.462;2024-01-30T03:16:53;45.33;;;32.57;;
9807;SDS011;4943;52.550;13.462;2024-01-30T03:19:21;45.87;;;32.90;;
9807;SDS011;4943;52.550;13.462;2024-01-30T03:21:50;45.57;;;32.53;;
9807;SDS011;4943;52.550;13.462;2024-01-30T03:24:18;45.47;;;32.63;;
9807;SDS011;4943;52.550;13.462;2024-01-30T03:26:47;45.23;;;32.40;;
9807;SDS011;4943;52.550;13.462;2024-01-30T03:29:15;46.67;;;33.47;;
9807;SDS011;4943;52.550;13.462;2024-01-30T03:31:44;46.67;;;33.43;;
9807;SDS011;4943;52.550;13.462;2024-01-30T03:34:13;46.73;;;33.53;;
9807;SDS011;4943;52.550;13.462;2024-01-30T03:36:41;46.83;;;33.37;;
9807;SDS011;4943;52.550;13.462;2024-01-30T03:39:09;46.23;;;32.97;;
9807;SDS011;4943;52.550;13.462;2024-01-30T03:41:37;45.70;;;32.70;;
9807;SDS011;4943;52.550;13.462;2024-01-30T03:44:09;46.87;;;33.50;;
9807;SDS011;4943;52.550;13.462;2024-01-30T03:46:37;46.60;;;33.30;;
9807;SDS011;4943;52.550;13.462;2024-01-30T03:49:06;46.70;;;33.27;;
9807;SDS011;4943;52.550;13.462;2024-01-30T03:51:35;46.67;;;33.20;;
9807;SDS011;4943;52.550;13.462;2024-01-30T03:54:03;46.63;;;33.13;;
9807;SDS011;4943;52.550;13.462;2024-01-30T03:56:31;46.30;;;32.87;;
9807;SDS011;4943;52.550;13.462;2024-01-30T03:59:00;46.73;;;33.17;;
9807;SDS011;4943;52.550;13.462;2024-01-30T04:01:29;46.67;;;33.13;;
9807;SDS011;4943;52.550;13.462;2024-01-30T04:03:57;46.67;;;33.20;;
9807;SDS011;4943;52.550;13.462;2024-01-30T04:06:27;46.47;;;33.07;;
9807;SDS011;4943;52.550;13.462;2024-01-30T04:08:55;46.33;;;33.23;;
9807;SDS011;4943;52.550;13.462;2024-01-30T04:11:24;46.50;;;33.10;;
9807;SDS011;4943;52.550;13.462;2024-01-30T04:13:52;46.47;;;33.17;;
9807;SDS011;4943;52.550;13.462;2024-01-30T04:16:20;46.27;;;33.17;;
9807;SDS011;4943;52.550;13.462;2024-01-30T04:18:49;46.23;;;33.00;;
9807;SDS011;4943;52.550;13.462;2024-01-30T04:21:18;46.70;;;33.20;;
9807;SDS011;4943;52.550;13.462;2024-01-30T04:23:50;45.37;;;32.57;;
9807;SDS011;4943;52.550;13.462;2024-01-30T04:26:18;45.93;;;32.80;;
9807;SDS011;4943;52.550;13.462;2024-01-30T04:28:46;46.73;;;33.27;;
9807;SDS011;4943;52.550;13.462;2024-01-30T04:31:15;46.87;;;33.63;;
9807;SDS011;4943;52.550;13.462;2024-01-30T04:33:43;46.33;;;33.10;;
9807;SDS011;4943;52.550;13.462;2024-01-30T04:36:11;46.73;;;33.57;;
9807;SDS011;4943;52.550;13.462;2024-01-30T04:38:39;46.67;;;33.37;;
9807;SDS011;4943;52.550;13.462;2024-01-30T04:41:09;46.37;;;33.03;;
9807;SDS011;4943;52.550;13.462;2024-01-30T04:43:37;46.73;;;33.23;;
9807;SDS011;4943;52.550;13.462;2024-01-30T04:46:05;46.53;;;33.07;;
9807;SDS011;4943;52.550;13.462;2024-01-30T04:48:34;46.67;;;33.60;;
9807;SDS011;4943;52.550;13.462;2024-01-30T04:51:02;46.33;;;33.03;;
9807;SDS011;4943;52.550;13.462;2024-01-30T04:53:30;46.33;;;33.17;;
9807;SDS011;4943;52.550;13.462;2024-01-30T04:55:59;46.20;;;32.93;;
9807;SDS011;4943;52.550;13.462;2024-01-30T04:58:28;46.77;;;33.30;;
9807;SDS011;4943;52.550;13.462;2024-01-30T05:00:57;46.33;;;32.93;;
9807;SDS011;4943;52.550;13.462;2024-01-30T05:03:25;46.30;;;32.97;;
9807;SDS011;4943;52.550;13.462;2024-01-30T05:05:53;46.50;;;33.27;;
9807;SDS011;4943;52.550;13.462;2024-01-30T05:08:22;46.37;;;33.07;;
9807;SDS011;4943;52.550;13.462;2024-01-30T05:10:50;46.10;;;32.80;;
9807;SDS011;4943;52.550;13.462;2024-01-30T05:13:18;46.33;;;33.17;;
9807;SDS011;4943;52.550;13.462;2024-01-30T05:15:48;46.47;;;33.17;;
9807;SDS011;4943;52.550;13.462;2024-01-30T05:18:16;46.57;;;33.17;;
9807;SDS011;4943;52.550;13.462;2024-01-30T05:20:44;46.77;;;33.33;;
9807;SDS011;4943;52.550;13.462;2024-01-30T05:23:12;46.73;;;33.37;;
9807;SDS011;4943;52.550;13.462;2024-01-30T05:25:41;46.43;;;33.33;;
9807;SDS011;4943;52.550;13.462;2024-01-30T05:28:09;46.47;;;33.43;;
9807;SDS011;4943;52.550;13.462;2024-01-30T05:30:37;46.43;;;33.17;;
9807;SDS011;4943;52.550;13.462;2024-01-30T05:33:07;46.63;;;33.30;;
9807;SDS011;4943;52.550;13.462;2024-01-30T05:35:36;46.67;;;33.47;;
9807;SDS011;4943;52.550;13.462;2024-01-30T05:38:04;46.70;;;33.07;;
9807;SDS011;4943;52.550;13.462;2024-01-30T05:40:32;46.60;;;33.10;;
9807;SDS011;4943;52.550;13.462;2024-01-30T05:43:01;46.53;;;33.07;;
9807;SDS011;4943;52.550;13.462;2024-01-30T05:45:29;46.00;;;32.80;;
9807;SDS011;4943;52.550;13.462;2024-01-30T05:47:57;46.43;;;33.03;;
9807;SDS011;4943;52.550;13.462;2024-01-30T05:50:27;46.57;;;33.13;;
9807;SDS011;4943;52.550;13.462;2024-01-30T05:52:56;46.50;;;33.10;;
9807;SDS011;4943;52.550;13.462;2024-01-30T05:55:24;46.40;;;33.03;;
9807;SDS011;4943;52.550;13.462;2024-01-30T05:57:53;46.20;;;33.03;;
9807;SDS011;4943;52.550;13.462;2024-01-30T06:00:22;46.50;;;32.90;;
9807;SDS011;4943;52.550;13.462;2024-01-30T06:02:50;46.10;;;32.80;;
9807;SDS011;4943;52.550;13.462;2024-01-30T06:05:18;46.90;;;33.23;;
9807;SDS011;4943;52.550;13.462;2024-01-30T06:07:48;46.13;;;32.80;;
9807;SDS011;4943;52.550;13.462;2024-01-30T06:10:16;45.97;;;32.70;;
9807;SDS011;4943;52.550;13.462;2024-01-30T06:12:45;46.13;;;32.80;;
9807;SDS011;4943;52.550;13.462;2024-01-30T06:15:14;46.17;;;32.87;;
9807;SDS011;4943;52.550;13.462;2024-01-30T06:17:43;46.43;;;32.93;;
9807;SDS011;4943;52.550;13.462;2024-01-30T06:20:11;46.47;;;32.97;;
9807;SDS011;4943;52.550;13.462;2024-01-30T06:22:39;46.53;;;33.17;;
9807;SDS011;4943;52.550;13.462;2024-01-30T06:25:09;46.40;;;33.07;;
9807;SDS011;4943;52.550;13.462;2024-01-30T06:27:38;46.77;;;33.37;;
9807;SDS011;4943;52.550;13.462;2024-01-30T06:30:07;46.60;;;33.30;;
9807;SDS011;4943;52.550;13.462;2024-01-30T06:32:37;46.63;;;33.23;;
9807;SDS011;4943;52.550;13.462;2024-01-30T06:35:05;46.63;;;33.47;;
9807;SDS011;4943;52.550;13.462;2024-01-30T06:37:34;46.70;;;33.43;;
9807;SDS011;4943;52.550;13.462;2024-01-30T06:40:03;46.40;;;33.23;;
9807;SDS011;4943;52.550;13.462;2024-01-30T06:42:33;46.67;;;33.47;;
9807;SDS011;4943;52.550;13.462;2024-01-30T06:45:02;46.43;;;33.23;;
9807;SDS011;4943;52.550;13.462;2024-01-30T06:47:32;46.53;;;33.17;;
9807;SDS011;4943;52.550;13.462;2024-01-30T06:50:00;46.87;;;33.63;;
9807;SDS011;4943;52.550;13.462;2024-01-30T06:52:30;47.10;;;33.73;;
9807;SDS011;4943;52.550;13.462;2024-01-30T06:54:58;46.53;;;33.23;;
9807;SDS011;4943;52.550;13.462;2024-01-30T06:57:26;46.57;;;33.07;;
9807;SDS011;4943;52.550;13.462;2024-01-30T06:59:58;46.73;;;33.23;;
9807;SDS011;4943;52.550;13.462;2024-01-30T07:02:26;46.80;;;33.07;;
9807;SDS011;4943;52.550;13.462;2024-01-30T07:04:54;46.67;;;32.97;;
9807;SDS011;4943;52.550;13.462;2024-01-30T07:07:23;47.00;;;33.33;;
9807;SDS011;4943;52.550;13.462;2024-01-30T07:09:51;47.00;;;33.37;;
9807;SDS011;4943;52.550;13.462;2024-01-30T07:12:23;46.53;;;33.13;;
9807;SDS011;4943;52.550;13.462;2024-01-30T07:14:52;46.60;;;33.13;;
9807;SDS011;4943;52.550;13.462;2024-01-30T07:17:24;46.50;;;33.40;;
9807;SDS011;4943;52.550;13.462;2024-01-30T07:19:52;46.83;;;33.27;;
9807;SDS011;4943;52.550;13.462;2024-01-30T07:22:20;46.77;;;33.47;;
9807;SDS011;4943;52.550;13.462;2024-01-30T07:24:49;46.63;;;33.33;;
9807;SDS011;4943;52.550;13.462;2024-01-30T07:27:18;46.73;;;33.30;;
9807;SDS011;4943;52.550;13.462;2024-01-30T07:29:48;46.93;;;33.57;;
9807;SDS011;4943;52.550;13.462;2024-01-30T07:32:16;47.03;;;33.50;;
9807;SDS011;4943;52.550;13.462;2024-01-30T07:34:46;46.83;;;33.43;;
9807;SDS011;4943;52.550;13.462;2024-01-30T07:37:32;46.93;;;33.50;;
9807;SDS011;4943;52.550;13.462;2024-01-30T07:40:01;47.27;;;34.27;;
9807;SDS011;4943;52.550;13.462;2024-01-30T07:42:30;46.63;;;33.40;;
9807;SDS011;4943;52.550;13.462;2024-01-30T07:44:58;47.67;;;34.23;;
9807;SDS011;4943;52.550;13.462;2024-01-30T07:47:27;46.93;;;33.87;;
9807;SDS011;4943;52.550;13.462;2024-01-30T07:49:57;46.57;;;33.30;;
9807;SDS011;4943;52.550;13.462;2024-01-30T07:52:25;46.10;;;33.17;;
9807;SDS011;4943;52.550;13.462;2024-01-30T07:54:54;47.23;;;33.93;;
9807;SDS011;4943;52.550;13.462;2024-01-30T07:57:23;46.43;;;33.30;;
9807;SDS011;4943;52.550;13.462;2024-01-30T07:59:51;46.70;;;33.33;;
9807;SDS011;4943;52.550;13.462;2024-01-30T08:02:19;47.13;;;33.63;;
9807;SDS011;4943;52.550;13.462;2024-01-30T08:04:48;47.13;;;33.53;;
9807;SDS011;4943;52.550;13.462;2024-01-30T08:07:18;47.27;;;33.87;;
9807;SDS011;4943;52.550;13.462;2024-01-30T08:09:48;47.07;;;33.83;;
9807;SDS011;4943;52.550;13.462;2024-01-30T08:12:16;47.30;;;33.60;;
9807;SDS011;4943;52.550;13.462;2024-01-30T08:14:45;46.97;;;33.47;;
9807;SDS011;4943;52.550;13.462;2024-01-30T08:17:13;46.57;;;33.37;;
9807;SDS011;4943;52.550;13.462;2024-01-30T08:19:41;47.20;;;33.83;;
9807;SDS011;4943;52.550;13.462;2024-01-30T08:22:11;46.20;;;33.23;;
9807;SDS011;4943;52.550;13.462;2024-01-30T08:24:41;46.77;;;33.60;;
9807;SDS011;4943;52.550;13.462;2024-01-30T08:27:10;47.00;;;33.60;;
9807;SDS011;4943;52.550;13.462;2024-01-30T08:29:38;47.20;;;34.00;;
9807;SDS011;4943;52.550;13.462;2024-01-30T08:32:06;47.17;;;33.47;;
9807;SDS011;4943;52.550;13.462;2024-01-30T08:34:35;47.40;;;33.77;;
9807;SDS011;4943;52.550;13.462;2024-01-30T08:37:03;47.07;;;33.50;;
9807;SDS011;4943;52.550;13.462;2024-01-30T08:39:31;46.47;;;33.17;;
9807;SDS011;4943;52.550;13.462;2024-01-30T08:42:01;47.03;;;33.73;;
9807;SDS011;4943;52.550;13.462;2024-01-30T08:44:30;47.70;;;33.90;;
9807;SDS011;4943;52.550;13.462;2024-01-30T08:46:58;47.40;;;33.73;;
9807;SDS011;4943;52.550;13.462;2024-01-30T08:49:26;47.37;;;33.67;;
9807;SDS011;4943;52.550;13.462;2024-01-30T08:51:55;47.17;;;33.70;;
9807;SDS011;4943;52.550;13.462;2024-01-30T08:54:24;47.60;;;34.03;;
9807;SDS011;4943;52.550;13.462;2024-01-30T08:56:52;47.30;;;33.90;;
9807;SDS011;4943;52.550;13.462;2024-01-30T08:59:24;47.60;;;33.90;;
9807;SDS011;4943;52.550;13.462;2024-01-30T09:01:52;48.20;;;34.33;;
9807;SDS011;4943;52.550;13.462;2024-01-30T09:04:36;46.93;;;33.43;;
9807;SDS011;4943;52.550;13.462;2024-01-30T09:07:05;47.93;;;33.97;;
9807;SDS011;4943;52.550;13.462;2024-01-30T09:09:37;48.00;;;34.07;;
9807;SDS011;4943;52.550;13.462;2024-01-30T09:12:07;47.93;;;34.20;;
9807;SDS011;4943;52.550;13.462;2024-01-30T09:14:39;47.67;;;33.90;;
9807;SDS011;4943;52.550;13.462;2024-01-30T09:17:08;47.73;;;33.80;;
9807;SDS011;4943;52.550;13.462;2024-01-30T09:19:36;48.03;;;34.10;;
9807;SDS011;4943;52.550;13.462;2024-01-30T09:22:05;48.00;;;34.23;;
9807;SDS011;4943;52.550;13.462;2024-01-30T09:24:33;48.70;;;34.63;;
9807;SDS011;4943;52.550;13.462;2024-01-30T09:27:01;48.53;;;34.10;;
9807;SDS011;4943;52.550;13.462;2024-01-30T09:29:30;48.07;;;34.20;;
9807;SDS011;4943;52.550;13.462;2024-01-30T09:32:02;48.20;;;34.07;;
9807;SDS011;4943;52.550;13.462;2024-01-30T09:34:31;48.37;;;34.20;;
9807;SDS011;4943;52.550;13.462;2024-01-30T09:36:59;48.70;;;34.67;;
9807;SDS011;4943;52.550;13.462;2024-01-30T09:39:27;48.47;;;34.17;;
9807;SDS011;4943;52.550;13.462;2024-01-30T09:42:02;49.00;;;34.33;;
9807;SDS011;4943;52.550;13.462;2024-01-30T09:44:37;48.93;;;34.43;;
9807;SDS011;4943;52.550;13.462;2024-01-30T09:47:09;49.67;;;34.87;;
9807;SDS011;4943;52.550;13.462;2024-01-30T09:49:38;49.17;;;34.53;;
9807;SDS011;4943;52.550;13.462;2024-01-30T09:52:06;49.37;;;34.53;;
9807;SDS011;4943;52.550;13.462;2024-01-30T09:54:36;49.43;;;34.63;;
9807;SDS011;4943;52.550;13.462;2024-01-30T09:57:06;48.83;;;33.97;;
9807;SDS011;4943;52.550;13.462;2024-01-30T09:59:34;49.80;;;35.27;;
9807;SDS011;4943;52.550;13.462;2024-01-30T10:02:03;49.83;;;34.67;;
9807;SDS011;4943;52.550;13.462;2024-01-30T10:04:33;49.97;;;35.03;;
9807;SDS011;4943;52.550;13.462;2024-01-30T10:07:01;49.67;;;34.77;;
9807;SDS011;4943;52.550;13.462;2024-01-30T10:09:31;50.10;;;35.00;;
9807;SDS011;4943;52.550;13.462;2024-01-30T10:12:01;49.47;;;34.53;;
9807;SDS011;4943;52.550;13.462;2024-01-30T10:14:30;49.60;;;34.57;;
9807;SDS011;4943;52.550;13.462;2024-01-30T10:16:58;50.27;;;34.77;;
9807;SDS011;4943;52.550;13.462;2024-01-30T10:19:39;50.73;;;35.30;;
9807;SDS011;4943;52.550;13.462;2024-01-30T10:22:08;50.57;;;34.97;;
9807;SDS011;4943;52.550;13.462;2024-01-30T10:24:37;50.63;;;35.17;;
9807;SDS011;4943;52.550;13.462;2024-01-30T10:27:05;50.97;;;35.03;;
9807;SDS011;4943;52.550;13.462;2024-01-30T10:29:34;51.00;;;35.37;;
9807;SDS011;4943;52.550;13.462;2024-01-30T10:32:02;51.07;;;35.23;;
9807;SDS011;4943;52.550;13.462;2024-01-30T10:34:32;51.57;;;36.07;;
9807;SDS011;4943;52.550;13.462;2024-01-30T10:37:06;51.47;;;35.57;;
9807;SDS011;4943;52.550;13.462;2024-01-30T10:39:39;51.10;;;35.13;;
9807;SDS011;4943;52.550;13.462;2024-01-30T10:42:10;51.43;;;35.23;;
9807;SDS011;4943;52.550;13.462;2024-01-30T10:44:43;52.27;;;35.93;;
9807;SDS011;4943;52.550;13.462;2024-01-30T10:47:17;50.93;;;34.97;;
9807;SDS011;4943;52.550;13.462;2024-01-30T10:49:54;51.20;;;35.27;;
9807;SDS011;4943;52.550;13.462;2024-01-30T10:52:24;51.23;;;35.17;;
9807;SDS011;4943;52.550;13.462;2024-01-30T10:54:56;51.30;;;35.20;;
9807;SDS011;4943;52.550;13.462;2024-01-30T10:57:24;51.57;;;35.47;;
9807;SDS011;4943;52.550;13.462;2024-01-30T10:59:55;51.30;;;34.97;;
9807;SDS011;4943;52.550;13.462;2024-01-30T11:02:24;52.07;;;36.37;;
9807;SDS011;4943;52.550;13.462;2024-01-30T11:04:54;51.03;;;34.83;;
9807;SDS011;4943;52.550;13.462;2024-01-30T11:07:27;51.07;;;34.93;;
9807;SDS011;4943;52.550;13.462;2024-01-30T11:10:00;50.07;;;34.20;;
9807;SDS011;4943;52.550;13.462;2024-01-30T11:12:30;51.43;;;35.40;;
9807;SDS011;4943;52.550;13.462;2024-01-30T11:15:04;51.07;;;35.03;;
9807;SDS011;4943;52.550;13.462;2024-01-30T11:17:49;51.70;;;35.60;;
9807;SDS011;4943;52.550;13.462;2024-01-30T11:20:19;51.67;;;35.27;;
9807;SDS011;4943;52.550;13.462;2024-01-30T11:22:52;52.33;;;35.90;;
9807;SDS011;4943;52.550;13.462;2024-01-30T11:25:21;52.67;;;36.27;;
9807;SDS011;4943;52.550;13.462;2024-01-30T11:27:50;52.33;;;35.70;;
9807;SDS011;4943;52.550;13.462;2024-01-30T11:30:23;52.37;;;35.57;;
9807;SDS011;4943;52.550;13.462;2024-01-30T11:32:58;52.43;;;36.13;;
9807;SDS011;4943;52.550;13.462;2024-01-30T11:35:33;52.00;;;35.47;;
9807;SDS011;4943;52.550;13.462;2024-01-30T11:38:04;52.03;;;35.37;;
9807;SDS011;4943;52.550;13.462;2024-01-30T11:40:34;52.47;;;35.67;;
9807;SDS011;4943;52.550;13.462;2024-01-30T11:43:03;52.73;;;35.93;;
9807;SDS011;4943;52.550;13.462;2024-01-30T11:45:33;52.53;;;36.07;;
9807;SDS011;4943;52.550;13.462;2024-01-30T11:48:02;52.63;;;35.80;;
9807;SDS011;4943;52.550;13.462;2024-01-30T11:50:32;52.43;;;35.50;;
9807;SDS011;4943;52.550;13.462;2024-01-30T11:53:01;52.57;;;35.97;;
9807;SDS011;4943;52.550;13.462;2024-01-30T11:55:31;52.67;;;35.80;;
9807;SDS011;4943;52.550;13.462;2024-01-30T11:58:01;51.73;;;35.23;;
9807;SDS011;4943;52.550;13.462;2024-01-30T12:00:30;51.53;;;35.40;;
9807;SDS011;4943;52.550;13.462;2024-01-30T12:03:00;52.27;;;35.83;;
9807;SDS011;4943;52.550;13.462;2024-01-30T12:05:30;52.17;;;35.50;;
9807;SDS011;4943;52.550;13.462;2024-01-30T12:07:58;51.07;;;35.20;;
9807;SDS011;4943;52.550;13.462;2024-01-30T12:10:28;49.97;;;35.37;;
9807;SDS011;4943;52.550;13.462;2024-01-30T12:12:58;48.20;;;34.83;;
9807;SDS011;4943;52.550;13.462;2024-01-30T12:15:28;49.43;;;35.13;;
9807;SDS011;4943;52.550;13.462;2024-01-30T12:18:03;48.37;;;34.83;;
9807;SDS011;4943;52.550;13.462;2024-01-30T12:20:33;49.23;;;34.87;;
9807;SDS011;4943;52.550;13.462;2024-01-30T12:23:02;49.70;;;35.13;;
9807;SDS011;4943;52.550;13.462;2024-01-30T12:25:30;49.00;;;35.57;;
9807;SDS011;4943;52.550;13.462;2024-01-30T12:28:00;49.57;;;35.30;;
9807;SDS011;4943;52.550;13.462;2024-01-30T12:30:29;50.03;;;35.20;;
9807;SDS011;4943;52.550;13.462;2024-01-30T12:32:58;50.97;;;35.87;;
9807;SDS011;4943;52.550;13.462;2024-01-30T12:35:26;51.33;;;35.97;;
9807;SDS011;4943;52.550;13.462;2024-01-30T12:37:58;51.70;;;35.63;;
9807;SDS011;4943;52.550;13.462;2024-01-30T12:40:27;52.47;;;36.20;;
9807;SDS011;4943;52.550;13.462;2024-01-30T12:42:55;52.73;;;36.23;;
9807;SDS011;4943;52.550;13.462;2024-01-30T12:45:26;52.83;;;35.97;;
9807;SDS011;4943;52.550;13.462;2024-01-30T12:47:54;54.20;;;37.17;;
9807;SDS011;4943;52.550;13.462;2024-01-30T12:50:22;54.10;;;36.63;;
9807;SDS011;4943;52.550;13.462;2024-01-30T12:52:51;53.97;;;37.03;;
9807;SDS011;4943;52.550;13.462;2024-01-30T12:55:19;53.87;;;36.43;;
9807;SDS011;4943;52.550;13.462;2024-01-30T12:57:47;53.60;;;36.27;;
9807;SDS011;4943;52.550;13.462;2024-01-30T13:00:16;53.07;;;35.87;;
9807;SDS011;4943;52.550;13.462;2024-01-30T13:02:45;53.27;;;35.67;;
9807;SDS011;4943;52.550;13.462;2024-01-30T13:05:15;53.50;;;35.87;;
9807;SDS011;4943;52.550;13.462;2024-01-30T13:07:44;55.10;;;37.10;;
9807;SDS011;4943;52.550;13.462;2024-01-30T13:10:12;56.80;;;37.53;;
9807;SDS011;4943;52.550;13.462;2024-01-30T13:12:40;56.13;;;37.37;;
9807;SDS011;4943;52.550;13.462;2024-01-30T13:15:09;55.83;;;37.10;;
9807;SDS011;4943;52.550;13.462;2024-01-30T13:17:38;55.67;;;37.27;;
9807;SDS011;4943;52.550;13.462;2024-01-30T13:20:08;56.67;;;37.53;;
9807;SDS011;4943;52.550;13.462;2024-01-30T13:22:38;56.77;;;37.80;;
9807;SDS011;4943;52.550;13.462;2024-01-30T13:25:06;56.70;;;38.07;;
9807;SDS011;4943;52.550;13.462;2024-01-30T13:27:35;56.53;;;37.67;;
9807;SDS011;4943;52.550;13.462;2024-01-30T13:30:06;57.00;;;38.17;;
9807;SDS011;4943;52.550;13.462;2024-01-30T13:32:35;56.50;;;37.67;;
9807;SDS011;4943;52.550;13.462;2024-01-30T13:35:04;56.13;;;37.03;;
9807;SDS011;4943;52.550;13.462;2024-01-30T13:37:34;56.17;;;37.53;;
9807;SDS011;4943;52.550;13.462;2024-01-30T13:40:03;56.50;;;37.60;;
9807;SDS011;4943;52.550;13.462;2024-01-30T13:42:37;56.40;;;37.57;;
9807;SDS011;4943;52.550;13.462;2024-01-30T13:45:05;56.27;;;37.27;;
9807;SDS011;4943;52.550;13.462;2024-01-30T13:47:36;55.70;;;37.20;;
9807;SDS011;4943;52.550;13.462;2024-01-30T13:50:05;56.57;;;37.77;;
9807;SDS011;4943;52.550;13.462;2024-01-30T13:52:36;56.43;;;37.50;;
9807;SDS011;4943;52.550;13.462;2024-01-30T13:55:10;56.97;;;37.90;;
9807;SDS011;4943;52.550;13.462;2024-01-30T13:57:39;56.57;;;38.90;;
9807;SDS011;4943;52.550;13.462;2024-01-30T14:00:08;56.93;;;37.87;;
9807;SDS011;4943;52.550;13.462;2024-01-30T14:02:37;55.10;;;36.73;;
9807;SDS011;4943;52.550;13.462;2024-01-30T14:05:06;56.40;;;37.37;;
9807;SDS011;4943;52.550;13.462;2024-01-30T14:07:37;56.07;;;37.63;;
9807;SDS011;4943;52.550;13.462;2024-01-30T14:10:07;56.27;;;37.43;;
9807;SDS011;4943;52.550;13.462;2024-01-30T14:12:41;55.63;;;37.33;;
9807;SDS011;4943;52.550;13.462;2024-01-30T14:15:10;55.17;;;36.67;;
9807;SDS011;4943;52.550;13.462;2024-01-30T14:17:53;55.07;;;36.73;;
9807;SDS011;4943;52.550;13.462;2024-01-30T14:20:22;54.43;;;36.70;;
9807;SDS011;4943;52.550;13.462;2024-01-30T14:22:52;54.07;;;36.57;;
9807;SDS011;4943;52.550;13.462;2024-01-30T14:25:22;54.07;;;36.70;;
9807;SDS011;4943;52.550;13.462;2024-01-30T14:27:51;54.47;;;36.87;;
9807;SDS011;4943;52.550;13.462;2024-01-30T14:30:19;54.67;;;36.67;;
9807;SDS011;4943;52.550;13.462;2024-01-30T14:32:47;54.27;;;36.50;;
9807;SDS011;4943;52.550;13.462;2024-01-30T14:35:16;54.77;;;37.10;;
9807;SDS011;4943;52.550;13.462;2024-01-30T14:37:46;54.77;;;37.17;;
9807;SDS011;4943;52.550;13.462;2024-01-30T14:40:17;54.17;;;36.30;;
9807;SDS011;4943;52.550;13.462;2024-01-30T14:42:46;54.07;;;36.43;;
9807;SDS011;4943;52.550;13.462;2024-01-30T14:45:14;54.97;;;36.87;;